createdAt,value
2018-06-12T00:00:42.845Z,77.70
2018-06-12T00:05:41.184Z,78.60
2018-06-12T00:08:09.767Z,79.10
2018-06-12T00:10:38.372Z,79.60
2018-06-12T00:15:35.184Z,80.80
2018-06-12T00:18:03.752Z,81.40
2018-06-12T00:20:32.348Z,81.50
2018-06-12T00:23:00.979Z,82.10
2018-06-12T00:25:29.600Z,82.30
2018-06-12T00:27:58.200Z,82.60
2018-06-12T00:30:26.844Z,83.00
2018-06-12T00:32:55.497Z,83.40
2018-06-12T00:35:24.064Z,83.80
2018-06-12T00:37:52.956Z,84.30
2018-06-12T00:40:21.632Z,84.90
2018-06-12T00:42:50.171Z,85.50
2018-06-12T00:45:18.760Z,86.10
2018-06-12T00:47:47.324Z,86.60
2018-06-12T00:50:15.947Z,87.10
2018-06-12T00:52:44.459Z,87.60
2018-06-12T00:55:13.087Z,88.40
2018-06-12T00:57:41.665Z,88.90
2018-06-12T01:00:10.279Z,89.70
2018-06-12T01:02:38.830Z,90.10
2018-06-12T01:05:07.381Z,90.40
2018-06-12T01:07:36.050Z,90.70
2018-06-12T01:10:04.591Z,91.20
2018-06-12T01:12:33.825Z,91.40
2018-06-12T01:15:02.390Z,91.60
2018-06-12T01:17:31.025Z,91.90
2018-06-12T01:19:59.664Z,92.10
2018-06-12T01:22:28.305Z,92.40
2018-06-12T01:24:57.199Z,92.50
2018-06-12T01:27:26.355Z,92.80
2018-06-12T01:29:54.920Z,92.90
2018-06-12T01:32:23.607Z,93.20
2018-06-12T01:34:52.203Z,93.40
2018-06-12T01:37:20.773Z,93.50
2018-06-12T01:39:50.163Z,93.60
2018-06-12T01:42:18.719Z,94.10
2018-06-12T01:44:47.351Z,94.10
2018-06-12T01:47:15.976Z,94.30
2018-06-12T01:49:44.502Z,94.30
2018-06-12T01:52:13.069Z,94.50
2018-06-12T01:54:41.650Z,94.80
2018-06-12T01:57:11.080Z,95.00
2018-06-12T01:59:39.676Z,95.10
2018-06-12T02:02:08.329Z,95.10
2018-06-12T02:04:36.959Z,95.20
2018-06-12T02:12:02.083Z,95.40
2018-06-12T02:16:59.992Z,95.20
2018-06-12T02:19:28.578Z,95.20
2018-06-12T02:21:57.232Z,94.80
2018-06-12T02:24:25.776Z,94.70
2018-06-12T02:26:54.665Z,94.60
2018-06-12T02:29:23.143Z,93.90
2018-06-12T02:31:51.722Z,94.00
2018-06-12T02:34:20.357Z,93.50
2018-06-12T02:41:45.383Z,92.90
2018-06-12T02:44:13.903Z,92.80
2018-06-12T02:46:42.447Z,92.60
2018-06-12T02:49:10.973Z,92.50
2018-06-12T02:51:39.571Z,92.50
2018-06-12T02:54:08.158Z,92.40
2018-06-12T02:56:36.704Z,92.00
2018-06-12T02:59:05.394Z,91.90
2018-06-12T03:01:33.929Z,91.60
2018-06-12T03:04:02.654Z,91.40
2018-06-12T03:06:31.250Z,91.40
2018-06-12T03:08:59.864Z,91.20
2018-06-12T03:11:28.490Z,91.50
2018-06-12T03:16:25.372Z,91.40
2018-06-12T03:18:53.960Z,91.40
2018-06-12T03:21:22.584Z,91.40
2018-06-12T03:23:51.160Z,91.40
2018-06-12T03:26:19.775Z,91.40
2018-06-12T03:31:16.704Z,91.10
2018-06-12T03:33:45.934Z,90.80
2018-06-12T03:36:14.567Z,90.80
2018-06-12T03:38:43.128Z,90.80
2018-06-12T03:41:11.713Z,90.70
2018-06-12T03:43:40.287Z,90.70
2018-06-12T03:46:08.828Z,90.60
2018-06-12T03:48:37.477Z,90.70
2018-06-12T03:51:06.102Z,90.60
2018-06-12T03:53:34.688Z,90.70
2018-06-12T03:56:03.283Z,90.80
2018-06-12T04:03:28.522Z,90.60
2018-06-12T04:08:25.315Z,90.50
2018-06-12T04:10:53.888Z,90.50
2018-06-12T04:13:22.577Z,90.40
2018-06-12T04:15:51.205Z,90.20
2018-06-12T04:18:20.037Z,90.30
2018-06-12T04:20:49.148Z,90.30
2018-06-12T04:23:17.728Z,90.30
2018-06-12T04:25:46.434Z,90.30
2018-06-12T04:28:14.997Z,90.00
2018-06-12T04:30:43.621Z,89.90
2018-06-12T04:33:12.363Z,90.00
2018-06-12T04:35:40.928Z,89.40
2018-06-12T04:40:37.956Z,89.20
2018-06-12T04:43:06.526Z,88.40
2018-06-12T04:45:35.217Z,88.00
2018-06-12T04:48:03.893Z,87.20
2018-06-12T04:50:32.546Z,87.50
2018-06-12T04:53:01.426Z,88.10
2018-06-12T04:55:30.155Z,88.70
2018-06-12T04:57:58.785Z,88.70
2018-06-12T05:00:28.467Z,88.20
2018-06-12T05:02:57.061Z,88.10
2018-06-12T05:05:25.654Z,86.50
2018-06-12T05:12:50.761Z,87.20
2018-06-12T05:15:19.415Z,86.90
2018-06-12T05:17:48.005Z,86.40
2018-06-12T05:20:16.583Z,85.90
2018-06-12T05:22:45.235Z,86.30
2018-06-12T05:25:13.858Z,85.90
2018-06-12T05:27:42.473Z,86.80
2018-06-12T05:30:11.168Z,87.40
2018-06-12T05:35:08.028Z,88.00
2018-06-12T05:40:05.053Z,88.40
2018-06-12T05:42:33.582Z,87.20
2018-06-12T05:45:02.144Z,86.40
2018-06-12T05:47:30.995Z,86.70
2018-06-12T05:49:59.670Z,85.80
2018-06-12T05:52:29.088Z,86.70
2018-06-12T05:54:57.762Z,86.70
2018-06-12T05:57:26.802Z,86.00
2018-06-12T05:59:55.395Z,85.90
2018-06-12T06:07:20.585Z,85.00
2018-06-12T06:09:49.132Z,84.30
2018-06-12T06:12:17.820Z,84.60
2018-06-12T06:14:46.533Z,84.30
2018-06-12T06:17:15.161Z,84.80
2018-06-12T06:22:12.178Z,83.50
2018-06-12T06:24:40.837Z,82.20
2018-06-12T06:27:09.513Z,80.20
2018-06-12T06:29:38.198Z,78.00
2018-06-12T06:32:06.779Z,75.70
2018-06-12T06:34:35.565Z,75.70
2018-06-12T06:37:04.102Z,75.60
2018-06-12T06:39:32.717Z,74.80
2018-06-12T06:44:31.791Z,73.60
2018-06-12T06:47:00.314Z,73.60
2018-06-12T06:54:27.334Z,75.00
2018-06-12T06:56:57.051Z,75.70
2018-06-12T06:59:25.632Z,74.50
2018-06-12T07:01:54.492Z,74.00
2018-06-12T07:04:23.102Z,75.10
2018-06-12T07:06:51.681Z,75.80
2018-06-12T07:09:21.350Z,75.40
2018-06-12T07:11:49.932Z,74.20
2018-06-12T07:14:19.160Z,73.30
2018-06-12T07:16:47.928Z,70.40
2018-06-12T07:19:16.522Z,70.90
2018-06-12T07:21:45.106Z,69.20
2018-06-12T07:24:14.808Z,68.80
2018-06-12T07:26:43.356Z,68.60
2018-06-12T07:29:14.326Z,67.00
2018-06-12T07:31:43.163Z,66.00
2018-06-12T07:34:12.348Z,66.80
2018-06-12T07:36:42.681Z,65.70
2018-06-12T07:39:11.307Z,64.90
2018-06-12T07:44:08.234Z,59.20
2018-06-12T07:46:36.790Z,57.50
2018-06-12T07:49:05.902Z,58.00
2018-06-12T07:51:34.531Z,58.60
2018-06-12T07:54:03.469Z,57.30
2018-06-12T07:56:32.059Z,56.30
2018-06-12T07:59:00.862Z,55.40
2018-06-12T08:01:29.492Z,56.90
2018-06-12T08:03:59.001Z,57.50
2018-06-12T08:06:27.865Z,56.90
2018-06-12T08:11:24.976Z,54.80
2018-06-12T08:13:54.517Z,52.70
2018-06-12T08:16:23.933Z,51.70
2018-06-12T08:18:52.660Z,52.80
2018-06-12T08:21:23.612Z,53.10
2018-06-12T08:23:52.810Z,52.90
2018-06-12T08:26:21.742Z,52.80
2018-06-12T08:31:19.885Z,52.40
2018-06-12T08:33:49.166Z,52.00
2018-06-12T08:36:18.115Z,52.80
2018-06-12T08:41:15.342Z,51.50
2018-06-12T08:43:44.080Z,51.10
2018-06-12T08:48:41.942Z,51.10
2018-06-12T08:51:11.291Z,50.90
2018-06-12T08:53:41.189Z,51.20
2018-06-12T08:56:10.072Z,51.70
2018-06-12T09:01:07.957Z,51.60
2018-06-12T09:03:36.719Z,52.20
2018-06-12T09:06:05.609Z,52.20
2018-06-12T09:08:34.237Z,51.60
2018-06-12T09:11:02.848Z,52.20
2018-06-12T09:13:31.610Z,51.00
2018-06-12T09:16:01.473Z,51.30
2018-06-12T09:18:30.117Z,52.30
2018-06-12T09:20:58.742Z,52.90
2018-06-12T09:23:27.449Z,52.80
2018-06-12T09:25:56.927Z,52.30
2018-06-12T09:28:25.579Z,51.90
2018-06-12T09:30:54.189Z,51.10
2018-06-12T09:33:22.815Z,50.90
2018-06-12T09:35:52.207Z,50.00
2018-06-12T09:38:20.994Z,50.50
2018-06-12T09:43:18.909Z,49.00
2018-06-12T09:45:47.552Z,49.50
2018-06-12T09:50:45.335Z,48.60
2018-06-12T09:55:42.424Z,49.20
2018-06-12T09:58:11.232Z,49.40
2018-06-12T10:00:45.174Z,50.00
2018-06-12T10:03:13.862Z,50.20
2018-06-12T10:05:42.484Z,49.80
2018-06-12T10:08:11.234Z,49.20
2018-06-12T10:10:39.962Z,47.90
2018-06-12T10:13:08.524Z,48.20
2018-06-12T10:18:05.984Z,47.90
2018-06-12T10:23:02.862Z,48.70
2018-06-12T10:30:28.056Z,46.30
2018-06-12T10:32:57.209Z,47.50
2018-06-12T10:35:25.979Z,46.70
2018-06-12T10:37:54.610Z,46.60
2018-06-12T10:40:23.333Z,46.60
2018-06-12T10:45:21.119Z,47.50
2018-06-12T10:47:49.768Z,46.50
2018-06-12T10:50:18.361Z,46.80
2018-06-12T10:52:47.017Z,47.30
2018-06-12T10:55:15.659Z,47.50
2018-06-12T10:57:44.285Z,47.30
2018-06-12T11:00:13.586Z,48.40
2018-06-12T11:02:42.208Z,48.70
2018-06-12T11:05:10.791Z,48.40
2018-06-12T11:07:39.374Z,49.20
2018-06-12T11:10:09.052Z,50.00
2018-06-12T11:12:37.638Z,49.60
2018-06-12T11:15:06.205Z,48.80
2018-06-12T11:17:34.834Z,48.10
2018-06-12T11:20:04.600Z,48.90
2018-06-12T11:22:33.311Z,48.90
2018-06-12T11:25:01.862Z,48.60
2018-06-12T11:27:30.541Z,48.30
2018-06-12T11:29:59.639Z,47.30
2018-06-12T11:32:28.373Z,48.00
2018-06-12T11:34:56.956Z,48.20
2018-06-12T11:37:25.549Z,47.10
2018-06-12T11:42:22.628Z,47.50
2018-06-12T11:44:51.962Z,46.70
2018-06-12T11:47:20.521Z,46.50
2018-06-12T11:49:49.140Z,46.80
2018-06-12T11:52:17.705Z,47.10
2018-06-12T11:54:48.152Z,46.30
2018-06-12T11:57:16.947Z,46.60
2018-06-12T11:59:45.533Z,46.50
2018-06-12T12:02:14.854Z,46.10
2018-06-12T12:12:08.323Z,44.90
2018-06-12T12:14:36.899Z,44.20
2018-06-12T12:17:05.688Z,44.20
2018-06-12T12:19:34.268Z,43.20
2018-06-12T12:22:02.847Z,41.80
2018-06-12T12:24:31.785Z,39.90
2018-06-12T12:31:57.299Z,37.10
2018-06-12T12:34:26.117Z,34.40
2018-06-12T12:36:56.717Z,33.90
2018-06-12T12:39:25.409Z,35.40
2018-06-12T12:41:55.029Z,36.10
2018-06-12T12:44:23.645Z,35.30
2018-06-12T12:46:52.277Z,34.40
2018-06-12T12:49:20.930Z,33.50
2018-06-12T12:51:49.684Z,32.40
2018-06-12T12:54:18.712Z,31.40
2018-06-12T12:56:47.526Z,31.80
2018-06-12T12:59:16.135Z,31.60
2018-06-12T13:01:44.944Z,31.80
2018-06-12T13:09:10.832Z,32.00
2018-06-12T13:11:39.421Z,32.20
2018-06-12T13:14:08.138Z,32.20
2018-06-12T13:16:36.728Z,31.40
2018-06-12T13:19:05.415Z,30.30
2018-06-12T13:21:34.614Z,29.50
2018-06-12T13:24:03.343Z,29.10
2018-06-12T13:26:32.080Z,29.70
2018-06-12T13:29:00.758Z,30.10
2018-06-12T13:31:29.430Z,29.70
2018-06-12T13:33:58.096Z,30.00
2018-06-12T13:36:26.721Z,29.60
2018-06-12T13:38:55.896Z,29.60
2018-06-12T13:41:24.720Z,29.30
2018-06-12T13:46:21.532Z,29.30
2018-06-12T13:48:50.147Z,29.10
2018-06-12T13:51:18.810Z,29.00
2018-06-12T13:53:47.412Z,28.80
2018-06-12T13:56:16.299Z,26.90
2018-06-12T13:58:44.858Z,26.60
2018-06-12T14:01:14.207Z,26.20
2018-06-12T14:03:42.748Z,26.60
2018-06-12T14:06:11.373Z,25.70
2018-06-12T14:11:08.755Z,26.80
2018-06-12T14:13:37.551Z,26.60
2018-06-12T14:16:06.412Z,26.50
2018-06-12T14:21:03.782Z,26.80
2018-06-12T14:23:32.895Z,27.40
2018-06-12T14:28:30.476Z,27.10
2018-06-12T14:30:59.961Z,27.30
2018-06-12T14:40:54.141Z,27.10
2018-06-12T14:43:22.736Z,26.00
2018-06-12T14:45:51.539Z,24.80
2018-06-12T14:48:20.177Z,24.90
2018-06-12T14:50:48.701Z,24.00
2018-06-12T14:53:17.297Z,23.00
2018-06-12T14:55:45.916Z,23.20
2018-06-12T14:58:14.451Z,23.40
2018-06-12T15:00:42.995Z,22.80
2018-06-12T15:03:11.561Z,22.80
2018-06-12T15:05:40.274Z,24.70
2018-06-12T15:08:08.940Z,25.70
2018-06-12T15:10:37.523Z,26.80
2018-06-12T15:13:06.129Z,26.20
2018-06-12T15:15:35.580Z,26.20
2018-06-12T15:23:01.378Z,26.70
2018-06-12T15:25:30.048Z,27.10
2018-06-12T15:27:58.693Z,26.30
2018-06-12T15:30:27.281Z,25.60
2018-06-12T15:35:24.276Z,27.00
2018-06-12T15:37:52.923Z,27.90
2018-06-12T15:40:22.345Z,28.80
2018-06-12T15:42:50.920Z,30.00
2018-06-12T15:47:47.773Z,29.40
2018-06-12T15:50:16.458Z,27.20
2018-06-12T15:55:13.876Z,26.80
2018-06-12T15:57:42.455Z,27.50
2018-06-12T16:00:11.680Z,27.40
2018-06-12T16:02:40.228Z,26.60
2018-06-12T16:05:08.982Z,25.00
2018-06-12T16:10:06.127Z,24.00
2018-06-12T16:12:34.722Z,25.60
2018-06-12T16:17:31.668Z,28.60
2018-06-12T16:22:28.485Z,30.00
2018-06-12T16:24:57.028Z,30.00
2018-06-12T16:29:54.014Z,33.00
2018-06-12T16:32:22.650Z,34.60
2018-06-12T16:34:51.180Z,34.80
2018-06-12T16:37:19.783Z,33.30
2018-06-12T16:39:48.427Z,30.10
2018-06-12T16:47:14.247Z,28.50
2018-06-12T16:49:42.866Z,29.70
2018-06-12T16:52:11.462Z,31.30
2018-06-12T16:54:40.056Z,33.10
2018-06-12T16:57:08.900Z,34.10
2018-06-12T17:02:05.949Z,35.70
2018-06-12T17:04:35.463Z,36.10
2018-06-12T17:09:32.324Z,38.00
2018-06-12T17:12:01.021Z,38.10
2018-06-12T17:16:58.026Z,38.80
2018-06-12T17:19:26.589Z,39.00
2018-06-12T17:21:55.111Z,38.80
2018-06-12T17:24:23.697Z,39.00
2018-06-12T17:26:52.284Z,39.30
2018-06-12T17:29:20.900Z,39.40
2018-06-12T17:34:19.193Z,39.50
2018-06-12T17:36:48.812Z,39.70
2018-06-12T17:39:18.997Z,39.50
2018-06-12T17:41:47.800Z,39.60
2018-06-12T17:46:46.050Z,40.70
2018-06-12T17:49:14.909Z,40.00
2018-06-12T17:51:43.634Z,40.00
2018-06-12T17:54:12.287Z,40.00
2018-06-12T17:56:41.068Z,40.80
2018-06-12T17:59:09.879Z,40.60
2018-06-12T18:01:38.976Z,41.20
2018-06-12T18:04:07.727Z,41.40
2018-06-12T18:06:36.799Z,41.60
2018-06-12T18:09:07.171Z,41.80
2018-06-12T18:11:37.224Z,42.70
2018-06-12T18:14:06.207Z,41.90
2018-06-12T18:16:34.930Z,42.10
2018-06-12T18:19:03.688Z,42.40
2018-06-12T18:26:57.418Z,42.70
2018-06-12T18:29:26.334Z,43.10
2018-06-12T18:31:55.103Z,43.20
2018-06-12T18:34:25.241Z,43.60
2018-06-12T18:36:55.200Z,43.70
2018-06-12T18:39:27.482Z,44.00
2018-06-12T18:46:56.804Z,44.20
2018-06-12T18:49:25.988Z,44.40
2018-06-12T18:51:58.759Z,44.30
2018-06-12T18:54:28.385Z,44.70
2018-06-12T18:56:57.670Z,45.00
2018-06-12T18:59:26.292Z,45.00
2018-06-12T19:04:26.419Z,45.40
2018-06-12T19:06:58.409Z,45.40
2018-06-12T19:09:30.941Z,46.00
2018-06-12T19:12:02.136Z,45.80
2018-06-12T19:14:32.458Z,46.30
2018-06-12T19:17:04.482Z,46.60
2018-06-12T19:19:43.024Z,46.90
2018-06-12T19:22:15.738Z,47.10
2018-06-12T19:24:46.588Z,47.20
2018-06-12T19:27:17.067Z,47.20
2018-06-12T19:29:45.942Z,47.40
2018-06-12T19:35:00.056Z,48.30
2018-06-12T19:37:32.411Z,48.60
2018-06-12T19:40:04.842Z,48.90
2018-06-12T19:42:40.660Z,49.30
2018-06-12T19:45:10.054Z,49.70
2018-06-12T19:47:48.254Z,49.80
2018-06-12T19:50:31.454Z,50.10
2018-06-12T19:55:45.963Z,50.60
2018-06-12T19:58:21.856Z,50.70
2018-06-12T20:01:00.532Z,50.70
2018-06-12T20:03:40.869Z,51.00
2018-06-12T20:06:17.560Z,51.20
2018-06-12T20:08:54.970Z,51.20
2018-06-12T20:14:10.004Z,51.20
2018-06-12T20:16:48.045Z,51.40
2018-06-12T20:19:26.164Z,51.30
2018-06-12T20:22:03.686Z,51.30
2018-06-12T20:24:36.507Z,51.20
2018-06-12T20:27:13.918Z,51.40
2018-06-12T20:29:45.798Z,51.50
2018-06-12T20:32:17.080Z,51.10
2018-06-12T20:34:46.388Z,51.40
2018-06-12T20:37:18.766Z,51.30
2018-06-12T20:39:49.032Z,51.30
2018-06-12T20:42:19.363Z,51.40
2018-06-12T20:49:50.401Z,51.70
2018-06-12T20:52:20.427Z,52.00
2018-06-12T20:54:50.837Z,52.40
2018-06-12T20:57:20.442Z,52.40
2018-06-12T20:59:50.101Z,52.60
2018-06-12T21:02:19.164Z,52.90
2018-06-12T21:04:49.404Z,52.80
2018-06-12T21:07:19.772Z,53.10
2018-06-12T21:09:49.416Z,53.20
2018-06-12T21:12:19.696Z,53.10
2018-06-12T21:14:51.431Z,53.10
2018-06-12T21:17:20.117Z,52.90
2018-06-12T21:19:49.310Z,52.80
2018-06-12T21:22:20.275Z,52.90
2018-06-12T21:24:49.141Z,52.90
2018-06-12T21:27:18.028Z,52.80
2018-06-12T21:29:48.037Z,52.90
2018-06-12T21:32:17.252Z,52.70
2018-06-12T21:34:47.813Z,52.70
2018-06-12T21:37:18.036Z,52.60
2018-06-12T21:39:49.660Z,52.60
2018-06-12T21:42:21.669Z,52.80
2018-06-12T21:52:17.028Z,53.10
2018-06-12T21:54:46.595Z,53.20
2018-06-12T21:57:15.506Z,53.20
2018-06-12T21:59:44.208Z,53.40
2018-06-12T22:02:12.885Z,53.20
2018-06-12T22:04:41.532Z,53.20
2018-06-12T22:09:39.850Z,53.10
2018-06-12T22:12:09.500Z,53.10
2018-06-12T22:14:38.312Z,53.00
2018-06-12T22:22:05.692Z,53.40
2018-06-12T22:24:34.392Z,52.90
2018-06-12T22:29:32.148Z,52.80
2018-06-12T22:32:03.988Z,52.70
2018-06-12T22:34:32.882Z,52.90
2018-06-12T22:37:02.111Z,52.80
2018-06-12T22:42:01.929Z,52.70
2018-06-12T22:44:31.537Z,52.80
2018-06-12T22:47:00.770Z,52.90
2018-06-12T22:49:29.883Z,52.90
2018-06-12T22:51:59.446Z,53.20
2018-06-12T22:56:57.562Z,53.50
2018-06-12T22:59:32.639Z,53.60
2018-06-12T23:02:01.311Z,53.80
2018-06-12T23:04:30.647Z,54.00
2018-06-12T23:07:01.861Z,54.30
2018-06-12T23:09:30.636Z,54.60
2018-06-12T23:11:59.406Z,54.80
2018-06-12T23:14:32.427Z,54.80
2018-06-12T23:17:07.737Z,54.70
2018-06-12T23:19:47.708Z,54.60
2018-06-12T23:22:16.545Z,54.70
2018-06-12T23:24:48.233Z,54.80
2018-06-12T23:27:17.525Z,55.00
2018-06-12T23:29:46.291Z,54.80
2018-06-12T23:32:20.376Z,54.90
2018-06-12T23:37:18.227Z,55.20
2018-06-12T23:39:47.390Z,55.40
2018-06-12T23:42:19.910Z,55.50
2018-06-12T23:44:49.979Z,55.60
2018-06-12T23:49:51.313Z,56.00
2018-06-12T23:52:21.139Z,56.10
2018-06-12T23:57:23.427Z,56.30
2018-06-12T23:59:52.520Z,56.60
